Time;durP1;ratioP1;P1;durP2;ratioP2;P2;SDS_P1;SDS_P2;PMS_P1;PMS_P2;Temp;Humidity;BMP_temperature;BMP_pressure;BME280_temperature;BME280_humidity;BME280_pressure;Samples;Min_cycle;Max_cycle;Signal;HPM_P1;HPM_P2
2024/01/22 00:01:08;;;;;;;12.85;6.63;;;5.70;99.90;;;;;;5033582;28;20045;-81
2024/01/22 00:03:34;;;;;;;18.10;7.13;;;5.70;99.90;;;;;;5016046;28;20478;-82
2024/01/22 00:06:00;;;;;;;15.65;7.13;;;5.70;99.90;;;;;;5031274;28;20108;-80
2024/01/22 00:08:25;;;;;;;13.10;6.40;;;5.70;99.90;;;;;;5028919;28;20084;-81
2024/01/22 00:10:51;;;;;;;13.50;6.50;;;5.70;99.90;;;;;;5028898;28;20589;-81
2024/01/22 00:13:16;;;;;;;14.00;6.97;;;5.70;99.90;;;;;;5015865;28;20028;-82
2024/01/22 00:15:42;;;;;;;19.10;7.03;;;5.70;99.90;;;;;;5032068;28;20022;-81
2024/01/22 00:18:07;;;;;;;13.63;7.05;;;5.70;99.90;;;;;;5030791;28;20033;-82
2024/01/22 00:20:33;;;;;;;16.27;6.82;;;5.70;99.90;;;;;;5014360;28;20032;-82
2024/01/22 00:22:58;;;;;;;14.57;6.38;;;5.70;99.90;;;;;;5016452;28;20075;-82
2024/01/22 00:25:24;;;;;;;10.75;5.40;;;5.70;99.90;;;;;;5033816;28;20057;-81
2024/01/22 00:27:50;;;;;;;17.02;7.80;;;5.60;99.90;;;;;;5032444;28;20057;-81
2024/01/22 00:30:15;;;;;;;21.70;7.50;;;5.60;99.90;;;;;;5015554;28;20025;-82
2024/01/22 00:32:41;;;;;;;12.38;6.50;;;5.60;99.90;;;;;;5013156;28;20025;-82
2024/01/22 00:35:07;;;;;;;14.38;6.60;;;5.60;99.90;;;;;;5016366;28;20036;-81
2024/01/22 00:37:32;;;;;;;17.55;7.13;;;5.60;99.90;;;;;;5015517;28;20076;-82
2024/01/22 00:39:58;;;;;;;18.13;6.50;;;5.60;99.90;;;;;;5014664;28;20014;-81
2024/01/22 00:42:24;;;;;;;11.98;6.47;;;5.60;99.90;;;;;;5031255;28;20060;-81
2024/01/22 00:44:49;;;;;;;13.15;7.03;;;5.60;99.90;;;;;;5027718;28;20030;-81
2024/01/22 00:47:15;;;;;;;17.08;6.75;;;5.60;99.90;;;;;;5012574;28;20021;-81
2024/01/22 00:49:42;;;;;;;16.15;6.75;;;5.60;99.90;;;;;;5011953;28;20030;-81
2024/01/22 00:52:07;;;;;;;15.35;6.70;;;5.60;99.90;;;;;;5013341;28;20036;-81
2024/01/22 00:54:33;;;;;;;14.52;7.32;;;5.60;99.90;;;;;;5030886;28;20025;-82
2024/01/22 00:56:59;;;;;;;16.55;6.75;;;5.60;99.90;;;;;;5014526;28;20026;-82
2024/01/22 00:59:24;;;;;;;14.63;6.80;;;5.60;99.90;;;;;;5014797;28;20028;-81
2024/01/22 01:01:50;;;;;;;14.77;6.60;;;5.70;99.90;;;;;;5038924;28;20044;-81
2024/01/22 01:04:16;;;;;;;16.73;6.53;;;5.70;99.90;;;;;;5014494;28;20124;-82
2024/01/22 01:06:41;;;;;;;11.73;5.88;;;5.70;99.90;;;;;;5029344;28;20080;-82
2024/01/22 01:09:07;;;;;;;13.20;6.40;;;5.70;99.90;;;;;;5011628;28;20476;-83
2024/01/22 01:11:32;;;;;;;17.00;6.75;;;5.60;99.90;;;;;;5014830;28;20525;-82
2024/01/22 01:13:58;;;;;;;12.18;6.65;;;5.70;99.90;;;;;;5017776;28;20641;-82
2024/01/22 01:16:23;;;;;;;16.85;6.95;;;5.70;99.90;;;;;;5032201;28;20415;-81
2024/01/22 01:18:49;;;;;;;14.95;6.75;;;5.70;99.90;;;;;;5013525;28;20034;-81
2024/01/22 01:21:16;;;;;;;11.82;5.68;;;5.70;99.90;;;;;;5013033;28;20409;-82
2024/01/22 01:23:42;;;;;;;15.05;7.05;;;5.70;99.90;;;;;;5014540;28;20026;-82
2024/01/22 01:26:08;;;;;;;12.40;6.70;;;5.70;99.90;;;;;;5017794;28;20079;-81
2024/01/22 01:28:34;;;;;;;15.13;6.75;;;5.70;99.90;;;;;;5014223;28;20502;-81
2024/01/22 01:31:00;;;;;;;11.15;6.40;;;5.70;99.90;;;;;;5013538;28;20026;-82
2024/01/22 01:33:25;;;;;;;14.98;6.75;;;5.70;99.90;;;;;;5014358;28;20407;-81
2024/01/22 01:35:51;;;;;;;15.00;7.00;;;5.70;99.90;;;;;;5014110;28;20013;-82
2024/01/22 01:38:16;;;;;;;14.82;6.63;;;5.70;99.90;;;;;;5016644;28;20049;-82
2024/01/22 01:40:42;;;;;;;13.82;6.68;;;5.70;99.90;;;;;;5014280;28;20022;-81
2024/01/22 01:43:08;;;;;;;10.48;5.53;;;5.60;99.90;;;;;;5032857;28;20100;-82
2024/01/22 01:45:33;;;;;;;17.90;6.68;;;5.60;99.90;;;;;;5013651;28;20055;-82
2024/01/22 01:47:59;;;;;;;10.77;6.05;;;5.60;99.90;;;;;;5026705;28;20229;-82
2024/01/22 01:50:25;;;;;;;13.95;6.88;;;5.60;99.90;;;;;;5013977;28;20028;-81
2024/01/22 01:52:52;;;;;;;16.45;7.18;;;5.60;99.90;;;;;;5013795;28;20103;-82
2024/01/22 01:55:20;;;;;;;10.73;5.70;;;5.60;99.90;;;;;;5013754;28;20026;-83
2024/01/22 01:57:46;;;;;;;11.57;6.18;;;5.60;99.90;;;;;;5027423;28;20488;-81
2024/01/22 02:00:13;;;;;;;15.93;5.97;;;5.60;99.90;;;;;;5010222;28;20033;-81
2024/01/22 02:02:39;;;;;;;10.30;5.60;;;5.60;99.90;;;;;;5012243;28;20025;-82
2024/01/22 02:05:06;;;;;;;13.60;5.68;;;5.60;99.90;;;;;;5013243;28;20044;-81
2024/01/22 02:07:32;;;;;;;13.27;6.38;;;5.60;99.90;;;;;;5013577;28;20071;-81
2024/01/22 02:09:57;;;;;;;17.10;6.22;;;5.60;99.90;;;;;;5012391;28;20022;-82
2024/01/22 02:12:23;;;;;;;16.58;5.88;;;5.60;99.90;;;;;;5010295;28;20116;-81
2024/01/22 02:14:49;;;;;;;9.88;5.30;;;5.60;99.90;;;;;;5034653;28;20108;-82
2024/01/22 02:17:16;;;;;;;17.63;6.50;;;5.60;99.90;;;;;;5014668;28;20527;-84
2024/01/22 02:19:41;;;;;;;10.40;5.47;;;5.60;99.90;;;;;;5031016;28;20013;-82
2024/01/22 02:22:07;;;;;;;8.95;5.32;;;5.50;99.90;;;;;;5011741;28;20486;-83
2024/01/22 02:24:33;;;;;;;12.70;5.30;;;5.50;99.90;;;;;;5027961;28;20025;-82
2024/01/22 02:26:59;;;;;;;11.10;6.18;;;5.50;99.90;;;;;;5013068;28;20018;-81
2024/01/22 02:29:24;;;;;;;9.90;5.13;;;5.50;99.90;;;;;;5012878;28;20026;-83
2024/01/22 02:31:52;;;;;;;16.38;6.07;;;5.50;99.90;;;;;;5033103;28;20030;-81
2024/01/22 02:34:18;;;;;;;12.52;5.47;;;5.60;99.90;;;;;;5009494;28;20025;-83
2024/01/22 02:36:45;;;;;;;9.40;5.13;;;5.50;99.90;;;;;;5011447;28;20068;-81
2024/01/22 02:39:11;;;;;;;8.43;4.85;;;5.50;99.90;;;;;;5030401;28;20435;-81
2024/01/22 02:41:37;;;;;;;12.00;5.40;;;5.50;99.90;;;;;;5032072;28;20017;-81
2024/01/22 02:44:03;;;;;;;10.18;5.00;;;5.50;99.90;;;;;;5012815;28;20021;-83
2024/01/22 02:46:29;;;;;;;8.77;4.35;;;5.60;99.90;;;;;;5031136;28;20609;-82
2024/01/22 02:48:55;;;;;;;11.95;5.10;;;5.60;99.90;;;;;;5011081;28;20028;-82
2024/01/22 02:51:20;;;;;;;10.30;4.40;;;5.60;99.90;;;;;;5032833;28;20101;-82
2024/01/22 02:53:47;;;;;;;8.15;4.25;;;5.60;99.90;;;;;;5031428;28;20029;-82
2024/01/22 02:56:20;;;;;;;8.60;4.65;;;5.50;99.90;;;;;;5031530;28;20826;-81
2024/01/22 02:58:45;;;;;;;11.13;4.43;;;5.60;99.90;;;;;;5026827;28;20084;-81
2024/01/22 03:01:11;;;;;;;8.10;4.07;;;5.60;99.90;;;;;;5010353;28;20014;-84
2024/01/22 03:03:36;;;;;;;9.85;4.40;;;5.50;99.90;;;;;;5012766;28;20035;-81
2024/01/22 03:06:02;;;;;;;16.88;4.53;;;5.50;99.90;;;;;;5032989;28;20029;-81
2024/01/22 03:08:28;;;;;;;8.18;4.50;;;5.60;99.90;;;;;;5030035;28;20117;-81
2024/01/22 03:10:53;;;;;;;10.98;4.57;;;5.60;99.90;;;;;;5008930;28;20028;-81
2024/01/22 03:13:19;;;;;;;8.40;3.95;;;5.60;99.90;;;;;;5010042;28;20036;-82
2024/01/22 03:15:44;;;;;;;9.23;4.18;;;5.60;99.90;;;;;;5032363;28;20021;-81
2024/01/22 03:18:10;;;;;;;9.30;4.40;;;5.60;99.90;;;;;;5012612;28;20060;-81
2024/01/22 03:20:37;;;;;;;16.65;4.38;;;5.60;99.90;;;;;;5014186;28;20068;-81
2024/01/22 03:23:03;;;;;;;8.27;3.85;;;5.60;99.90;;;;;;5014606;28;20025;-81
2024/01/22 03:25:29;;;;;;;7.40;3.75;;;5.60;99.90;;;;;;5010278;28;20021;-81
2024/01/22 03:27:55;;;;;;;9.07;4.22;;;5.60;99.90;;;;;;5028184;28;20494;-81
2024/01/22 03:30:21;;;;;;;9.23;3.88;;;5.60;99.90;;;;;;5031606;28;20509;-81
2024/01/22 03:32:46;;;;;;;11.60;4.20;;;5.60;99.90;;;;;;5031819;28;20040;-81
2024/01/22 03:35:12;;;;;;;8.75;4.20;;;5.60;99.90;;;;;;5011979;28;20025;-81
2024/01/22 03:37:39;;;;;;;7.18;4.00;;;5.60;99.90;;;;;;5007526;28;20022;-82
2024/01/22 03:40:05;;;;;;;6.20;3.92;;;5.60;99.90;;;;;;5015067;28;20018;-81
2024/01/22 03:42:31;;;;;;;6.35;3.88;;;5.60;99.90;;;;;;5011726;28;20454;-81
2024/01/22 03:44:57;;;;;;;9.07;4.13;;;5.60;99.90;;;;;;5029762;28;20483;-81
2024/01/22 03:47:22;;;;;;;9.82;3.72;;;5.60;99.90;;;;;;5030765;28;20034;-81
2024/01/22 03:49:48;;;;;;;6.47;3.60;;;5.60;99.90;;;;;;5011750;28;20040;-82
2024/01/22 03:52:13;;;;;;;7.82;3.92;;;5.60;99.90;;;;;;5010602;28;20083;-82
2024/01/22 03:54:39;;;;;;;6.85;3.97;;;5.60;99.90;;;;;;5011740;28;20032;-82
2024/01/22 03:57:06;;;;;;;7.15;3.58;;;5.60;99.90;;;;;;5012018;28;20014;-82
2024/01/22 03:59:33;;;;;;;6.03;3.33;;;5.60;99.90;;;;;;5030802;28;20105;-81
2024/01/22 04:01:59;;;;;;;7.90;3.78;;;5.60;99.90;;;;;;5011399;28;20022;-83
2024/01/22 04:04:24;;;;;;;6.50;3.03;;;5.60;99.90;;;;;;5010438;28;20091;-81
2024/01/22 04:06:50;;;;;;;9.07;3.45;;;5.60;99.90;;;;;;5011264;28;20026;-81
2024/01/22 04:09:15;;;;;;;10.75;3.60;;;5.60;99.90;;;;;;5024391;28;20056;-80
2024/01/22 04:11:41;;;;;;;5.40;3.25;;;5.60;99.90;;;;;;5012097;28;20553;-82
2024/01/22 04:14:07;;;;;;;6.75;3.05;;;5.60;99.90;;;;;;5011116;28;20025;-83
2024/01/22 04:16:32;;;;;;;9.00;3.40;;;5.60;99.90;;;;;;5028356;28;20430;-80
2024/01/22 04:18:58;;;;;;;5.95;3.30;;;5.60;99.90;;;;;;5029474;28;20028;-82
2024/01/22 04:21:24;;;;;;;4.63;2.90;;;5.60;99.90;;;;;;5011935;28;20117;-80
2024/01/22 04:23:49;;;;;;;8.52;3.58;;;5.60;99.90;;;;;;5029928;28;20021;-82
2024/01/22 04:26:15;;;;;;;8.40;2.83;;;5.60;99.90;;;;;;5015345;28;20033;-82
2024/01/22 04:28:40;;;;;;;6.13;3.45;;;5.60;99.90;;;;;;5030985;28;20025;-82
2024/01/22 04:31:06;;;;;;;8.15;3.17;;;5.60;99.90;;;;;;5011730;28;20021;-82
2024/01/22 04:33:32;;;;;;;8.15;3.40;;;5.60;99.90;;;;;;5035870;28;20052;-82
2024/01/22 04:35:58;;;;;;;5.32;2.97;;;5.60;99.90;;;;;;5011608;28;20487;-81
2024/01/22 04:38:24;;;;;;;5.47;2.60;;;5.60;99.90;;;;;;5011534;28;20037;-82
2024/01/22 04:40:49;;;;;;;6.97;2.83;;;5.60;99.90;;;;;;5012890;28;20416;-82
2024/01/22 04:43:15;;;;;;;4.90;2.53;;;5.60;99.90;;;;;;5015457;28;20540;-83
2024/01/22 04:45:41;;;;;;;4.47;3.20;;;5.60;99.90;;;;;;5034153;28;20391;-82
2024/01/22 04:48:07;;;;;;;5.38;3.15;;;5.60;99.90;;;;;;5015119;28;20028;-82
2024/01/22 04:50:32;;;;;;;3.65;2.50;;;5.60;99.90;;;;;;5014872;28;20109;-81
2024/01/22 04:52:58;;;;;;;7.03;2.90;;;5.60;99.90;;;;;;5028877;28;20033;-82
2024/01/22 04:55:23;;;;;;;7.00;3.20;;;5.60;99.90;;;;;;5019579;28;20030;-81
2024/01/22 04:57:49;;;;;;;4.63;2.67;;;5.60;99.90;;;;;;5039067;28;20028;-82
2024/01/22 05:00:15;;;;;;;5.40;2.30;;;5.60;99.90;;;;;;5014884;28;20018;-81
2024/01/22 05:02:40;;;;;;;5.75;3.05;;;5.60;99.90;;;;;;5033587;28;20391;-81
2024/01/22 05:05:06;;;;;;;4.13;2.58;;;5.60;99.90;;;;;;5012582;28;20024;-81
2024/01/22 05:07:31;;;;;;;6.50;2.65;;;5.60;99.90;;;;;;5014902;28;20048;-82
2024/01/22 05:10:00;;;;;;;6.93;2.65;;;5.60;99.90;;;;;;5014534;28;20083;-81
2024/01/22 05:12:26;;;;;;;5.90;2.95;;;5.60;99.90;;;;;;5011989;28;20388;-81
2024/01/22 05:14:52;;;;;;;5.13;2.55;;;5.60;99.90;;;;;;5012165;28;20156;-81
2024/01/22 05:17:17;;;;;;;9.15;2.78;;;5.60;99.90;;;;;;5030973;28;20536;-82
2024/01/22 05:19:43;;;;;;;5.00;2.83;;;5.60;99.90;;;;;;5014516;28;20021;-81
2024/01/22 05:22:09;;;;;;;9.65;2.63;;;5.60;99.90;;;;;;5014581;28;20071;-80
2024/01/22 05:24:35;;;;;;;3.85;2.53;;;5.60;99.90;;;;;;5014424;28;20027;-81
2024/01/22 05:27:03;;;;;;;6.63;3.13;;;5.60;99.90;;;;;;5012156;28;20030;-81
2024/01/22 05:29:28;;;;;;;6.43;2.60;;;5.60;99.90;;;;;;5014600;28;20030;-82
2024/01/22 05:31:54;;;;;;;7.68;2.75;;;5.60;99.90;;;;;;5034420;28;20471;-81
2024/01/22 05:34:19;;;;;;;5.45;2.95;;;5.60;99.90;;;;;;5034472;28;20029;-81
2024/01/22 05:36:46;;;;;;;4.65;3.00;;;5.60;99.90;;;;;;5031933;28;20021;-82
2024/01/22 05:39:12;;;;;;;4.22;2.88;;;5.60;99.90;;;;;;5014015;28;20044;-82
2024/01/22 05:41:38;;;;;;;4.68;2.45;;;5.60;99.90;;;;;;5032341;28;20030;-81
2024/01/22 05:44:04;;;;;;;5.70;3.10;;;5.60;99.90;;;;;;5014053;28;20033;-81
2024/01/22 05:46:30;;;;;;;5.03;2.25;;;5.60;99.90;;;;;;5036048;28;20025;-83
2024/01/22 05:48:55;;;;;;;7.13;2.97;;;5.60;99.90;;;;;;5030706;28;20017;-80
2024/01/22 05:51:21;;;;;;;5.72;2.60;;;5.60;99.90;;;;;;5032805;28;20067;-81
2024/01/22 05:53:47;;;;;;;10.43;3.13;;;5.60;99.90;;;;;;5014555;28;20479;-81
2024/01/22 05:56:26;;;;;;;8.00;2.67;;;5.60;99.90;;;;;;5013999;28;20071;-82
2024/01/22 05:58:53;;;;;;;11.85;3.08;;;5.60;99.90;;;;;;5028006;28;20480;-81
2024/01/22 06:01:27;;;;;;;8.15;2.85;;;5.60;99.90;;;;;;5013778;28;20392;-82
2024/01/22 06:03:53;;;;;;;6.88;2.65;;;5.60;99.90;;;;;;5010092;28;20025;-80
2024/01/22 06:06:19;;;;;;;5.80;2.80;;;5.60;99.90;;;;;;5013359;28;20041;-81
2024/01/22 06:08:46;;;;;;;8.57;3.00;;;5.60;99.90;;;;;;5016640;28;20032;-82
2024/01/22 06:11:12;;;;;;;4.20;2.67;;;5.60;99.90;;;;;;5013425;28;20391;-81
2024/01/22 06:13:41;;;;;;;4.55;2.42;;;5.60;99.90;;;;;;5017723;28;20033;-82
2024/01/22 06:16:16;;;;;;;10.50;2.58;;;5.50;99.90;;;;;;5032177;28;20010;-81
2024/01/22 06:18:45;;;;;;;7.72;3.38;;;5.60;99.90;;;;;;5034255;28;20114;-82
2024/01/22 06:21:13;;;;;;;5.57;2.92;;;5.60;99.90;;;;;;5030694;28;20694;-80
2024/01/22 06:23:38;;;;;;;8.52;2.97;;;5.60;99.90;;;;;;5036027;28;20041;-81
2024/01/22 06:26:05;;;;;;;6.95;3.33;;;5.50;99.90;;;;;;5030991;28;20025;-81
2024/01/22 06:28:31;;;;;;;4.45;3.03;;;5.50;99.90;;;;;;5013200;28;20036;-81
2024/01/22 06:30:57;;;;;;;7.35;3.20;;;5.50;99.90;;;;;;5012939;28;20021;-80
2024/01/22 06:33:23;;;;;;;6.20;3.17;;;5.60;99.90;;;;;;5029363;28;20072;-82
2024/01/22 06:35:49;;;;;;;8.93;3.35;;;5.60;99.90;;;;;;5033323;28;20056;-82
2024/01/22 06:38:17;;;;;;;5.55;3.05;;;5.50;99.90;;;;;;5016968;28;20037;-82
2024/01/22 06:40:46;;;;;;;5.40;3.13;;;5.50;99.90;;;;;;5032902;28;20025;-81
2024/01/22 06:43:12;;;;;;;8.60;3.13;;;5.50;99.90;;;;;;5012798;28;20036;-81
2024/01/22 06:45:38;;;;;;;13.30;3.38;;;5.50;99.90;;;;;;5014610;28;20021;-81
2024/01/22 06:48:04;;;;;;;14.77;3.50;;;5.50;99.90;;;;;;5030333;28;20033;-82
2024/01/22 06:50:30;;;;;;;5.72;3.20;;;5.50;99.90;;;;;;5011157;28;20026;-81
2024/01/22 06:52:56;;;;;;;6.93;3.50;;;5.60;99.90;;;;;;5013964;28;20025;-81
2024/01/22 06:55:22;;;;;;;6.95;3.45;;;5.60;99.90;;;;;;5011866;28;20077;-82
2024/01/22 06:57:48;;;;;;;8.05;4.05;;;5.60;99.90;;;;;;5029016;28;20044;-80
2024/01/22 07:00:15;;;;;;;10.07;3.28;;;5.50;99.90;;;;;;5015904;28;20068;-82
2024/01/22 07:02:43;;;;;;;10.38;3.53;;;5.50;99.90;;;;;;5009854;28;20022;-82
2024/01/22 07:05:10;;;;;;;7.10;3.25;;;5.60;99.90;;;;;;5013303;28;20022;-82
2024/01/22 07:07:37;;;;;;;9.30;3.22;;;5.50;99.90;;;;;;5013053;28;20120;-81
2024/01/22 07:10:05;;;;;;;14.57;4.13;;;5.50;99.90;;;;;;5012552;28;20376;-81
2024/01/22 07:12:31;;;;;;;6.57;3.13;;;5.50;99.90;;;;;;5028745;28;20053;-81
2024/01/22 07:14:57;;;;;;;7.15;2.90;;;5.50;99.90;;;;;;5012441;28;20102;-81
2024/01/22 07:17:22;;;;;;;9.23;3.28;;;5.60;99.90;;;;;;5012472;28;20434;-81
2024/01/22 07:19:48;;;;;;;12.10;3.58;;;5.60;99.90;;;;;;5030198;28;20025;-80
2024/01/22 07:22:13;;;;;;;6.97;3.58;;;5.60;99.90;;;;;;5016161;28;20024;-81
2024/01/22 07:24:39;;;;;;;6.65;3.58;;;5.60;99.90;;;;;;5032833;28;20021;-82
2024/01/22 07:27:05;;;;;;;4.53;2.80;;;5.60;99.90;;;;;;5016264;28;20071;-82
2024/01/22 07:29:31;;;;;;;4.57;3.35;;;5.60;99.90;;;;;;5028457;28;20026;-82
2024/01/22 07:31:57;;;;;;;8.63;3.40;;;5.60;99.90;;;;;;5012408;28;20021;-82
2024/01/22 07:34:23;;;;;;;10.48;3.50;;;5.60;99.90;;;;;;5015725;28;20029;-82
2024/01/22 07:36:49;;;;;;;4.63;2.78;;;5.60;99.90;;;;;;5013460;28;20056;-81
2024/01/22 07:39:15;;;;;;;6.85;2.95;;;5.60;99.90;;;;;;5013927;28;20014;-82
2024/01/22 07:41:41;;;;;;;5.60;3.30;;;5.60;99.90;;;;;;5024911;28;20038;-83
2024/01/22 07:44:08;;;;;;;6.50;3.28;;;5.60;99.90;;;;;;5012415;28;20128;-82
2024/01/22 07:46:34;;;;;;;6.50;3.10;;;5.60;99.90;;;;;;5012063;28;20020;-83
2024/01/22 07:49:00;;;;;;;6.07;3.33;;;5.60;99.90;;;;;;5012078;28;20048;-81
2024/01/22 07:51:25;;;;;;;5.88;2.97;;;5.60;99.90;;;;;;5012269;28;20139;-81
2024/01/22 07:53:51;;;;;;;6.10;3.30;;;5.60;99.90;;;;;;5029688;28;20034;-82
2024/01/22 07:56:17;;;;;;;7.20;3.05;;;5.60;99.90;;;;;;5011688;28;20476;-82
2024/01/22 07:58:43;;;;;;;7.15;3.38;;;5.60;99.90;;;;;;5027520;28;20083;-82
2024/01/22 08:01:09;;;;;;;6.75;2.97;;;5.60;99.90;;;;;;5036099;28;20017;-81
2024/01/22 08:03:35;;;;;;;5.63;3.00;;;5.60;99.90;;;;;;5030025;28;20075;-81
2024/01/22 08:06:01;;;;;;;9.57;3.22;;;5.60;99.90;;;;;;5029399;28;20095;-81
2024/01/22 08:08:27;;;;;;;6.65;2.75;;;5.60;99.90;;;;;;5011889;28;20513;-82
2024/01/22 08:10:54;;;;;;;9.93;3.47;;;5.60;99.90;;;;;;5036252;28;20029;-82
2024/01/22 08:13:20;;;;;;;20.95;3.88;;;5.60;99.90;;;;;;5034716;28;20025;-83
2024/01/22 08:15:49;;;;;;;4.80;2.92;;;5.50;99.90;;;;;;5012526;28;20021;-81
2024/01/22 08:18:15;;;;;;;7.33;3.00;;;5.60;99.90;;;;;;5015481;28;20026;-80
2024/01/22 08:20:41;;;;;;;6.28;2.90;;;5.60;99.90;;;;;;5016043;28;20021;-83
2024/01/22 08:23:07;;;;;;;8.80;2.92;;;5.60;99.90;;;;;;5015687;28;20025;-81
2024/01/22 08:25:33;;;;;;;8.43;2.67;;;5.60;99.90;;;;;;5033131;28;20025;-82
2024/01/22 08:28:00;;;;;;;8.27;2.83;;;5.60;99.90;;;;;;5033140;28;20026;-83
2024/01/22 08:30:26;;;;;;;9.10;3.50;;;5.60;99.90;;;;;;5016875;28;20487;-81
2024/01/22 08:32:52;;;;;;;7.75;2.67;;;5.60;99.90;;;;;;5035584;28;20030;-82
2024/01/22 08:35:19;;;;;;;5.18;2.28;;;5.60;99.90;;;;;;5016548;28;20036;-83
2024/01/22 08:37:50;;;;;;;11.90;3.03;;;5.60;99.90;;;;;;5032333;28;20415;-82
2024/01/22 08:40:17;;;;;;;12.57;2.85;;;5.60;99.90;;;;;;5035017;28;20041;-81
2024/01/22 08:42:46;;;;;;;7.43;2.67;;;5.60;99.90;;;;;;5035920;28;20033;-82
2024/01/22 08:45:12;;;;;;;7.60;3.38;;;5.60;99.90;;;;;;5010944;28;20117;-81
2024/01/22 08:47:37;;;;;;;4.70;2.22;;;5.60;99.90;;;;;;5018331;28;20108;-83
2024/01/22 08:50:04;;;;;;;7.95;3.17;;;5.60;99.90;;;;;;5024161;28;20028;-82
2024/01/22 08:52:30;;;;;;;7.45;2.78;;;5.60;99.90;;;;;;5032805;28;20018;-82
2024/01/22 08:54:55;;;;;;;8.23;2.90;;;5.60;99.90;;;;;;5014113;28;20014;-82
2024/01/22 08:57:21;;;;;;;3.72;2.22;;;5.60;99.90;;;;;;5014827;28;20483;-82
2024/01/22 08:59:46;;;;;;;4.32;2.50;;;5.60;99.90;;;;;;5018234;28;20034;-82
2024/01/22 09:02:12;;;;;;;5.43;2.72;;;5.60;99.90;;;;;;5017423;28;20017;-80
2024/01/22 09:04:37;;;;;;;3.72;2.67;;;5.60;99.90;;;;;;5031108;28;20084;-81
2024/01/22 09:07:03;;;;;;;3.53;2.25;;;5.60;99.90;;;;;;5014680;28;20033;-81
2024/01/22 09:09:29;;;;;;;5.53;2.42;;;5.60;99.90;;;;;;5032659;28;20045;-82
2024/01/22 09:11:54;;;;;;;5.43;2.60;;;5.70;99.90;;;;;;5014960;28;20022;-81
2024/01/22 09:14:20;;;;;;;4.50;2.95;;;5.60;99.90;;;;;;5031754;28;20140;-82
2024/01/22 09:16:45;;;;;;;9.70;2.30;;;5.60;99.90;;;;;;5014575;28;20025;-80
2024/01/22 09:19:11;;;;;;;8.93;3.10;;;5.70;99.90;;;;;;5032428;28;20019;-83
2024/01/22 09:21:36;;;;;;;4.45;2.20;;;5.70;99.90;;;;;;5032364;28;20036;-81
2024/01/22 09:24:02;;;;;;;5.18;2.55;;;5.70;99.90;;;;;;5031888;28;20049;-82
2024/01/22 09:26:27;;;;;;;9.82;3.03;;;5.70;99.90;;;;;;5019744;28;20060;-82
2024/01/22 09:28:53;;;;;;;6.75;2.42;;;5.70;99.90;;;;;;5036776;28;20029;-81
2024/01/22 09:31:19;;;;;;;5.50;2.78;;;5.70;99.90;;;;;;5032608;28;20476;-82
2024/01/22 09:33:45;;;;;;;5.88;2.58;;;5.70;99.90;;;;;;5009314;28;20026;-83
2024/01/22 09:36:11;;;;;;;4.40;2.50;;;5.70;99.90;;;;;;5032003;28;20022;-82
2024/01/22 09:38:40;;;;;;;6.35;2.80;;;5.70;99.90;;;;;;5014374;28;20017;-82
2024/01/22 09:41:06;;;;;;;5.15;2.25;;;5.70;99.90;;;;;;5014116;28;20044;-81
2024/01/22 09:43:32;;;;;;;3.95;2.45;;;5.70;99.90;;;;;;5031991;28;20026;-81
2024/01/22 09:45:58;;;;;;;5.03;2.30;;;5.70;99.90;;;;;;5033834;28;20101;-82
2024/01/22 09:48:24;;;;;;;7.80;2.50;;;5.70;99.90;;;;;;5031752;28;20036;-81
2024/01/22 09:50:53;;;;;;;8.00;2.80;;;5.80;99.90;;;;;;5016464;28;20395;-81
2024/01/22 09:53:20;;;;;;;6.07;2.55;;;5.70;99.90;;;;;;5013858;28;20049;-81
2024/01/22 09:55:47;;;;;;;7.32;2.97;;;5.80;99.90;;;;;;5015613;28;20013;-82
2024/01/22 09:58:24;;;;;;;5.22;2.47;;;5.80;99.90;;;;;;5013514;28;20021;-83
2024/01/22 10:00:52;;;;;;;6.68;2.65;;;5.80;99.90;;;;;;5011680;28;20028;-81
2024/01/22 10:03:17;;;;;;;7.85;2.40;;;5.80;99.90;;;;;;5015654;28;20040;-83
2024/01/22 10:05:44;;;;;;;6.88;2.28;;;5.80;99.90;;;;;;5012123;28;20021;-82
2024/01/22 10:08:09;;;;;;;3.65;2.33;;;5.80;99.90;;;;;;5013625;28;20521;-83
2024/01/22 10:10:37;;;;;;;6.13;2.50;;;5.90;99.90;;;;;;5013974;28;20021;-82
2024/01/22 10:13:04;;;;;;;4.80;2.83;;;5.90;99.90;;;;;;5013320;28;20483;-82
2024/01/22 10:15:39;;;;;;;3.90;2.33;;;5.90;99.90;;;;;;5030179;28;20071;-82
2024/01/22 10:18:07;;;;;;;6.13;2.65;;;5.90;99.90;;;;;;5016900;28;20052;-82
2024/01/22 10:20:33;;;;;;;5.18;2.28;;;5.90;99.90;;;;;;5028582;28;20018;-82
2024/01/22 10:23:02;;;;;;;6.60;2.45;;;5.90;99.90;;;;;;5034059;28;20336;-83
2024/01/22 10:25:28;;;;;;;4.35;2.22;;;5.90;99.90;;;;;;5013124;28;20053;-82
2024/01/22 10:28:17;;;;;;;5.90;2.70;;;5.90;99.90;;;;;;5005739;28;20024;-81
2024/01/22 10:31:02;;;;;;;6.20;3.35;;;5.90;99.90;;;;;;5031273;28;20021;-82
2024/01/22 10:33:28;;;;;;;7.40;2.58;;;5.90;99.90;;;;;;4998918;28;20105;-83
2024/01/22 10:35:53;;;;;;;6.30;3.08;;;5.90;99.90;;;;;;5032044;28;20100;-81
2024/01/22 10:38:19;;;;;;;7.55;3.08;;;5.90;99.90;;;;;;5012046;28;20048;-81
2024/01/22 10:40:46;;;;;;;6.57;2.70;;;5.90;99.90;;;;;;5031538;28;20025;-81
2024/01/22 10:43:26;;;;;;;5.55;2.83;;;5.90;99.90;;;;;;5014543;28;20074;-82
2024/01/22 10:45:53;;;;;;;5.18;2.45;;;5.90;99.90;;;;;;5030644;28;20025;-80
2024/01/22 10:48:24;;;;;;;6.78;2.35;;;6.00;99.90;;;;;;5031010;28;20041;-81
2024/01/22 10:50:51;;;;;;;4.60;2.38;;;6.00;99.90;;;;;;5008263;28;20028;-82
2024/01/22 10:53:18;;;;;;;5.93;2.50;;;6.00;99.90;;;;;;5032619;28;20032;-83
2024/01/22 10:56:05;;;;;;;4.60;2.75;;;6.00;99.90;;;;;;5012821;28;20033;-82
2024/01/22 10:58:42;;;;;;;7.80;2.65;;;6.00;99.90;;;;;;5012031;28;20068;-81
2024/01/22 11:01:16;;;;;;;5.65;2.25;;;6.10;99.90;;;;;;5013118;28;20032;-82
2024/01/22 11:03:44;;;;;;;4.55;2.20;;;6.10;99.90;;;;;;5032921;28;20025;-83
2024/01/22 11:06:14;;;;;;;6.35;2.70;;;6.10;99.90;;;;;;5009977;28;20026;-81
2024/01/22 11:08:40;;;;;;;4.70;2.28;;;6.10;99.90;;;;;;5012572;28;20026;-82
2024/01/22 11:11:08;;;;;;;8.75;2.28;;;6.10;99.90;;;;;;5013693;28;20116;-81
2024/01/22 11:13:34;;;;;;;3.83;2.08;;;6.10;99.90;;;;;;5030016;28;20026;-81
2024/01/22 11:16:00;;;;;;;6.97;3.17;;;6.10;99.90;;;;;;5029259;28;20577;-82
2024/01/22 11:18:25;;;;;;;4.68;2.40;;;6.10;99.90;;;;;;5013042;28;20380;-81
2024/01/22 11:21:17;;;;;;;3.67;2.30;;;6.10;99.90;;;;;;5014871;28;20092;-80
2024/01/22 11:23:43;;;;;;;4.85;2.28;;;6.10;99.90;;;;;;5028278;28;20048;-81
2024/01/22 11:26:10;;;;;;;4.63;2.60;;;6.10;99.90;;;;;;5011985;28;20018;-82
2024/01/22 11:28:36;;;;;;;4.88;2.83;;;6.10;99.90;;;;;;5017142;28;20029;-81
2024/01/22 11:31:02;;;;;;;5.30;2.47;;;6.10;99.90;;;;;;5029754;28;20033;-82
2024/01/22 11:33:31;;;;;;;7.43;2.72;;;6.10;99.90;;;;;;5012075;28;20551;-82
2024/01/22 11:35:56;;;;;;;2.97;2.03;;;6.00;99.90;;;;;;5009594;28;20018;-82
2024/01/22 11:38:47;;;;;;;4.75;2.40;;;6.00;99.90;;;;;;5030381;28;20049;-81
2024/01/22 11:41:31;;;;;;;8.45;2.50;;;6.00;99.90;;;;;;5013909;28;20049;-82
2024/01/22 11:43:56;;;;;;;8.45;2.70;;;6.00;99.90;;;;;;5027695;28;20100;-82
2024/01/22 11:46:22;;;;;;;3.38;2.30;;;6.00;99.90;;;;;;5030112;28;20116;-81
2024/01/22 11:48:47;;;;;;;7.00;2.42;;;6.00;99.90;;;;;;5027142;28;20063;-82
2024/01/22 11:51:13;;;;;;;5.85;2.42;;;6.00;99.90;;;;;;5033230;28;20075;-82
2024/01/22 11:53:56;;;;;;;5.60;2.30;;;6.00;99.90;;;;;;5016097;28;20144;-82
2024/01/22 11:56:22;;;;;;;4.32;2.35;;;6.00;99.90;;;;;;5013619;28;20025;-81
2024/01/22 11:58:58;;;;;;;4.93;2.22;;;6.10;99.90;;;;;;5017942;28;20024;-82
2024/01/22 12:01:24;;;;;;;4.85;2.45;;;6.00;99.90;;;;;;5015644;28;20034;-81
2024/01/22 12:03:50;;;;;;;5.22;2.20;;;6.00;99.90;;;;;;5012142;28;20032;-81
2024/01/22 12:06:15;;;;;;;3.67;2.40;;;6.10;99.90;;;;;;5037282;28;20029;-82
2024/01/22 12:08:41;;;;;;;2.70;2.20;;;6.10;99.90;;;;;;5012572;28;20113;-82
2024/01/22 12:11:12;;;;;;;3.03;2.03;;;6.10;99.90;;;;;;5033657;28;20056;-82
2024/01/22 12:13:41;;;;;;;3.78;2.40;;;6.10;99.90;;;;;;5014300;28;20026;-82
2024/01/22 12:16:17;;;;;;;3.03;1.73;;;6.10;99.90;;;;;;5033424;28;20014;-82
2024/01/22 12:18:43;;;;;;;3.78;2.28;;;6.10;99.90;;;;;;5007216;28;20042;-82
2024/01/22 12:21:12;;;;;;;3.65;2.03;;;6.10;99.90;;;;;;5032384;28;20018;-82
2024/01/22 12:23:39;;;;;;;3.83;2.15;;;6.10;99.90;;;;;;5015798;28;20029;-82
2024/01/22 12:26:13;;;;;;;7.65;2.42;;;6.10;99.90;;;;;;5016011;28;20053;-80
2024/01/22 12:28:39;;;;;;;3.38;1.90;;;6.10;99.90;;;;;;5013360;28;20068;-81
2024/01/22 12:31:05;;;;;;;3.22;1.90;;;6.10;99.90;;;;;;5032954;28;20025;-82
2024/01/22 12:33:32;;;;;;;3.88;1.90;;;6.10;99.90;;;;;;5032861;28;20036;-80
2024/01/22 12:36:11;;;;;;;3.55;1.95;;;6.10;99.90;;;;;;5032892;28;20022;-81
2024/01/22 12:38:49;;;;;;;3.47;2.07;;;6.10;99.90;;;;;;5016113;28;20017;-82
2024/01/22 12:41:15;;;;;;;5.47;1.70;;;6.10;99.90;;;;;;5035132;28;20033;-82
2024/01/22 12:43:41;;;;;;;6.57;2.00;;;6.10;99.90;;;;;;5036722;28;20021;-81
2024/01/22 12:46:09;;;;;;;3.78;1.85;;;6.10;99.90;;;;;;5013308;28;20446;-81
2024/01/22 12:48:35;;;;;;;4.90;1.80;;;6.10;99.90;;;;;;5015251;28;20029;-82
2024/01/22 12:51:02;;;;;;;8.00;1.88;;;6.10;99.90;;;;;;5016297;28;20032;-81
2024/01/22 12:53:27;;;;;;;4.03;1.70;;;6.10;99.90;;;;;;5030809;28;20116;-81